createdAt,value
2022-12-27T00:05:48.734Z,109.23
2022-12-27T00:15:50.426Z,104.80
2022-12-27T00:26:04.159Z,109.88
2022-12-27T00:36:07.870Z,110.72
2022-12-27T00:56:21.335Z,100.88
2022-12-27T01:06:29.143Z,100.97
2022-12-27T01:16:31.934Z,91.35
2022-12-27T01:26:34.713Z,96.15
2022-12-27T01:36:36.510Z,88.53
2022-12-27T01:46:38.478Z,66.65
2022-12-27T01:56:43.451Z,57.97
2022-12-27T02:06:46.944Z,36.15
2022-12-27T02:16:49.100Z,19.55
2022-12-27T02:27:02.909Z,18.13
2022-12-27T02:37:09.721Z,16.38
2022-12-27T02:47:38.780Z,18.58
2022-12-27T02:58:06.006Z,21.83
2022-12-27T03:08:29.699Z,26.15
2022-12-27T03:19:05.291Z,30.55
2022-12-27T03:29:27.523Z,34.42
2022-12-27T03:39:37.419Z,34.28
2022-12-27T03:49:50.760Z,34.33
2022-12-27T03:59:53.769Z,33.97
2022-12-27T04:10:14.378Z,31.57
2022-12-27T04:20:34.978Z,32.00
2022-12-27T04:30:55.372Z,31.98
2022-12-27T04:41:24.324Z,31.88
2022-12-27T04:51:45.902Z,24.77
2022-12-27T05:02:05.000Z,29.58
2022-12-27T05:12:29.500Z,9.25
2022-12-27T05:22:54.944Z,4.93
2022-12-27T05:33:04.334Z,6.97
2022-12-27T05:43:06.138Z,5.10
2022-12-27T05:53:08.342Z,4.85
2022-12-27T06:03:10.180Z,3.25
2022-12-27T06:13:12.031Z,3.85
2022-12-27T06:23:18.852Z,2.83
2022-12-27T06:33:20.531Z,2.50
2022-12-27T06:43:27.008Z,3.28
2022-12-27T06:53:33.746Z,3.30
2022-12-27T07:03:36.297Z,1.55
2022-12-27T07:13:41.344Z,1.27
2022-12-27T07:23:43.367Z,1.70
2022-12-27T07:33:45.421Z,1.23
2022-12-27T07:43:47.494Z,0.68
2022-12-27T07:53:51.811Z,1.55
2022-12-27T08:03:54.625Z,1.17
2022-12-27T08:13:56.496Z,0.60
2022-12-27T08:23:58.571Z,0.60
2022-12-27T08:34:00.187Z,0.70
2022-12-27T08:44:01.867Z,1.70
2022-12-27T08:54:04.407Z,0.73
2022-12-27T09:04:08.957Z,0.93
2022-12-27T09:14:11.892Z,1.30
2022-12-27T09:24:14.327Z,2.05
2022-12-27T09:34:22.469Z,1.45
2022-12-27T09:44:32.624Z,1.73
2022-12-27T09:55:17.803Z,0.60
2022-12-27T10:05:23.498Z,1.00
2022-12-27T10:15:50.276Z,3.83
2022-12-27T10:25:58.958Z,4.68
2022-12-27T10:36:10.807Z,1.58
2022-12-27T10:46:15.082Z,1.70
2022-12-27T10:56:29.524Z,2.67
2022-12-27T11:06:32.018Z,1.17
2022-12-27T11:16:36.113Z,0.73
2022-12-27T11:26:55.874Z,1.38
2022-12-27T11:37:15.689Z,1.27
2022-12-27T11:47:36.800Z,2.17
2022-12-27T11:57:51.081Z,3.17
2022-12-27T12:08:36.441Z,0.90
2022-12-27T12:19:08.902Z,2.60
2022-12-27T12:29:31.067Z,5.57
2022-12-27T12:40:01.364Z,1.00
2022-12-27T12:50:21.652Z,1.85
2022-12-27T13:00:51.804Z,1.58
2022-12-27T13:11:13.995Z,1.90
2022-12-27T13:21:46.633Z,1.33
2022-12-27T13:32:04.952Z,1.48
2022-12-27T13:42:24.628Z,2.95
2022-12-27T13:52:57.562Z,1.70
2022-12-27T14:03:17.393Z,1.58
2022-12-27T14:13:41.788Z,3.85
2022-12-27T14:24:32.830Z,2.40
2022-12-27T14:35:04.689Z,6.00
2022-12-27T14:45:38.205Z,8.25
2022-12-27T14:56:21.538Z,1.48
2022-12-27T15:06:45.024Z,2.00
2022-12-27T15:17:07.897Z,3.77
2022-12-27T15:27:26.057Z,2.90
2022-12-27T15:38:02.866Z,2.90
2022-12-27T15:48:10.333Z,4.25
2022-12-27T15:58:19.107Z,3.70
2022-12-27T16:08:27.709Z,3.88
2022-12-27T16:18:29.598Z,3.53
2022-12-27T16:28:42.487Z,4.03
2022-12-27T16:39:02.432Z,3.38
2022-12-27T16:49:26.233Z,8.55
2022-12-27T17:00:05.856Z,4.10
2022-12-27T17:10:35.891Z,3.42
2022-12-27T17:20:41.339Z,4.43
2022-12-27T17:31:14.739Z,5.03
2022-12-27T17:41:53.746Z,8.40
2022-12-27T17:52:15.663Z,6.97
2022-12-27T18:02:26.224Z,4.85
2022-12-27T18:12:44.471Z,5.03
2022-12-27T18:22:46.728Z,9.02
2022-12-27T18:32:49.081Z,6.78
2022-12-27T18:42:54.165Z,12.50
2022-12-27T18:53:02.405Z,11.18
2022-12-27T19:03:21.252Z,10.13
2022-12-27T19:13:30.446Z,11.82
2022-12-27T19:23:39.992Z,14.07
2022-12-27T19:33:55.263Z,12.88
2022-12-27T19:43:57.753Z,16.40
2022-12-27T19:54:00.003Z,11.02
2022-12-27T20:04:02.633Z,15.45
2022-12-27T20:14:04.920Z,17.08
2022-12-27T20:24:08.789Z,14.52
2022-12-27T20:34:11.458Z,11.35
2022-12-27T20:44:15.670Z,11.35
2022-12-27T20:54:19.107Z,16.02
2022-12-27T21:04:22.100Z,13.50
2022-12-27T21:14:24.049Z,17.50
2022-12-27T21:24:27.036Z,22.90
2022-12-27T21:34:30.269Z,22.75
2022-12-27T21:44:38.184Z,13.10
2022-12-27T21:54:41.279Z,16.80
2022-12-27T22:04:43.365Z,19.17
2022-12-27T22:14:48.140Z,16.70
2022-12-27T22:24:49.804Z,16.92
2022-12-27T22:34:54.548Z,17.58
2022-12-27T22:44:56.511Z,12.15
2022-12-27T22:55:04.580Z,7.47
2022-12-27T23:05:14.417Z,9.60
2022-12-27T23:15:16.363Z,9.45
2022-12-27T23:25:19.096Z,9.68
2022-12-27T23:35:21.354Z,11.77
2022-12-27T23:45:23.948Z,12.85
2022-12-27T23:55:25.652Z,10.45
